Data for 04/28/2018

Time Sea-Level Adjusted Pressure Absolute Pressure Temperature Relative Humidity Dew Point   
(mb) (inHg) (mb) (inHg) (C) (F) (%) (C) (F)
00:05 1014 29.94 843 24.89 13.3 56 37 -1.1 30
00:10 1014 29.94 843 24.89 13.3 55.9 37 -1.1 29.9
00:15 1014 29.94 843 24.89 13.3 56 37 -1.1 30.1
00:20 1014 29.94 843 24.89 13.3 55.9 37 -1.1 30
00:25 1014 29.94 843 24.89 13.3 55.9 37 -1.1 30
00:30 1014 29.94 843 24.89 13.2 55.7 37 -1 30.1
00:35 1014 29.94 843 24.89 13.1 55.7 37 -1.1 30.1
00:40 1014 29.94 843 24.89 13.1 55.6 37 -1 30.1
00:45 1014 29.94 843 24.89 13.2 55.7 37 -1.1 30.1
00:50 1014 29.94 843 24.89 13.1 55.7 37 -1.1 30.1
00:55 1014 29.94 843 24.89 13.1 55.6 37 -1.1 30
01:00 1014 29.94 843 24.89 13.1 55.6 37 -1.1 29.9
01:05 1014 29.94 843 24.89 13.1 55.6 38 -1 30.2
01:10 1014 29.94 843 24.89 13 55.3 38 -1.1 30.1
01:15 1014 29.94 843 24.89 13 55.4 38 -1 30.2
01:20 1014 29.94 843 24.89 12.9 55.2 38 -1 30.2
01:25 1014 29.94 843 24.89 12.9 55.2 38 -1 30.1
01:30 1014 29.94 843 24.89 12.9 55.2 38 -1 30.3
01:35 1014 29.94 843 24.89 12.9 55.1 38 -1 30.2
01:40 1013 29.91 843 24.89 12.8 55.1 38 -1 30.2
01:45 1013 29.91 843 24.89 12.7 54.9 39 -0.9 30.4
01:50 1013 29.91 843 24.89 12.7 54.8 39 -1 30.1
01:55 1013 29.91 842 24.86 12.7 54.8 39 -0.9 30.4
02:00 1013 29.91 842 24.86 12.6 54.6 39 -1 30.3
02:05 1013 29.91 842 24.86 12.5 54.6 39 -0.9 30.5
02:10 1013 29.91 842 24.86 12.4 54.4 39 -0.9 30.3
02:15 1013 29.91 842 24.86 12.4 54.3 39 -0.9 30.3
02:20 1013 29.91 842 24.86 12.4 54.3 40 -0.9 30.5
02:25 1013 29.91 842 24.86 12.2 54 40 -0.8 30.6
02:30 1013 29.91 842 24.86 12.1 53.8 40 -1 30.3
02:35 1013 29.91 842 24.86 12.2 53.9 40 -0.8 30.5
02:40 1013 29.91 842 24.86 12.1 53.7 41 -0.8 30.5
02:45 1013 29.91 842 24.86 11.8 53.2 42 -0.8 30.5
02:50 1013 29.91 842 24.86 11.6 52.8 42 -0.9 30.4
02:55 1013 29.91 842 24.86 11.4 52.6 42 -0.8 30.5
03:00 1013 29.91 842 24.86 11.3 52.3 43 -0.9 30.4
03:05 1013 29.91 842 24.86 11.3 52.3 42 -1 30.3
03:10 1013 29.91 842 24.86 11.2 52.1 43 -1 30.3
03:15 1012 29.88 842 24.86 10.9 51.6 44 -1 30.3
03:20 1012 29.88 842 24.86 10.9 51.5 43 -1.1 30.1
03:25 1013 29.91 842 24.86 10.8 51.4 43 -1.1 30.1
03:30 1013 29.91 842 24.86 10.7 51.3 44 -1.1 30
03:35 1013 29.91 842 24.86 10.7 51.2 43 -1.2 29.8
03:40 1013 29.91 842 24.86 10.6 51 44 -1.3 29.7
03:45 1012 29.88 842 24.86 10.5 50.8 44 -1.3 29.6
03:50 1013 29.91 842 24.86 10.4 50.7 44 -1.2 29.8
03:55 1013 29.91 842 24.86 10.4 50.8 45 -1.1 30
04:00 1013 29.91 842 24.86 10.6 51 44 -1.1 30
04:05 1013 29.91 842 24.86 10.6 51.1 44 -1.1 30
04:10 1013 29.91 842 24.86 10.7 51.2 44 -1.1 30.1
04:15 1012 29.88 842 24.86 10.7 51.3 44 -1 30.2
04:20 1012 29.88 842 24.86 10.6 51.1 44 -1.1 30.1
04:25 1012 29.88 842 24.86 10.5 51 44 -1 30.1
04:30 1012 29.88 842 24.86 10.4 50.6 45 -1.2 29.9
04:35 1012 29.88 841 24.83 10.3 50.5 45 -1 30.2
04:40 1012 29.88 841 24.83 10.2 50.3 45 -1.1 29.9
04:45 1012 29.88 841 24.83 10.1 50.2 45 -1.4 29.5
04:50 1012 29.88 841 24.83 10 49.9 43 -1.8 28.7
04:55 1012 29.88 842 24.86 9.8 49.6 44 -1.9 28.5
05:00 1012 29.88 842 24.86 9.5 49.2 44 -2.2 28.1
05:05 1012 29.88 841 24.83 9.4 48.9 44 -2.1 28.1
05:10 1012 29.88 841 24.83 9 48.2 45 -2.4 27.7
05:15 1012 29.88 841 24.83 9 48.2 45 -2.4 27.8
05:20 1012 29.88 841 24.83 9.1 48.3 46 -1.8 28.8
05:25 1012 29.88 841 24.83 8.9 48 48 -1.5 29.3
05:30 1012 29.88 841 24.83 8.8 47.9 48 -1.6 29.1
05:35 1012 29.88 841 24.83 8.9 48.1 47 -1.8 28.7
05:40 1012 29.88 841 24.83 8.7 47.7 46 -2.2 28
05:45 1012 29.88 841 24.83 8.3 46.9 45 -2.8 26.9
05:50 1012 29.88 841 24.83 8.1 46.6 46 -2.8 27
05:55 1012 29.88 841 24.83 7.8 46.1 46 -2.9 26.7
06:00 1012 29.88 841 24.83 8.1 46.6 45 -3.1 26.5
06:05 1012 29.88 841 24.83 8.4 47.1 44 -3 26.6
06:10 1012 29.88 841 24.83 8.6 47.5 43 -3.1 26.4
06:15 1012 29.88 841 24.83 8.7 47.7 43 -3.1 26.5
06:20 1012 29.88 841 24.83 8.7 47.7 43 -3 26.5
06:25 1012 29.88 842 24.86 8.8 47.8 42 -3.4 25.9
06:30 1012 29.88 842 24.86 9 48.1 42 -3.2 26.2
06:35 1012 29.88 842 24.86 8.9 48.1 42 -3.2 26.3
06:40 1013 29.91 842 24.86 9 48.1 41 -3.5 25.7
06:45 1012 29.88 842 24.86 9.2 48.5 41 -3.3 26
06:50 1013 29.91 842 24.86 9.1 48.3 42 -3.3 26.1
06:55 1013 29.91 842 24.86 9 48.3 42 -3.2 26.2
07:00 1012 29.88 842 24.86 9.1 48.4 42 -3 26.5
07:05 1013 29.91 842 24.86 9.1 48.3 42 -3 26.6
07:10 1013 29.91 842 24.86 9 48.3 42 -3.1 26.5
07:15 1012 29.88 842 24.86 9.2 48.5 42 -3.2 26.3
07:20 1013 29.91 842 24.86 9.2 48.6 43 -2.8 27
07:25 1012 29.88 842 24.86 9.5 49 40 -3.3 26
07:30 1012 29.88 841 24.83 9.9 49.8 40 -3.2 26.2
07:35 1012 29.88 841 24.83 9.9 49.9 40 -3 26.6
07:40 1012 29.88 841 24.83 10 49.9 41 -2.8 27
07:45 1012 29.88 841 24.83 10.2 50.4 39 -2.9 26.8
07:50 1012 29.88 841 24.83 10.7 51.2 39 -2.7 27.1
07:55 1012 29.88 841 24.83 11 51.9 38 -2.9 26.9
08:00 1012 29.88 841 24.83 11.6 52.8 36 -3 26.5
08:05 1012 29.88 841 24.83 12 53.5 34 -3.3 26
08:10 1012 29.88 841 24.83 12.2 53.9 33 -3.6 25.6
08:15 1012 29.88 841 24.83 12.6 54.7 31 -4.1 24.7
08:20 1012 29.88 841 24.83 13.1 55.7 31 -3.6 25.5
08:25 1012 29.88 841 24.83 13.5 56.3 30 -3.7 25.3
08:30 1012 29.88 841 24.83 13.8 56.8 30 -3.3 26
08:35 1012 29.88 841 24.83 14.1 57.4 29 -3.7 25.3
08:40 1012 29.88 841 24.83 14.6 58.3 27 -3.9 25
08:45 1011 29.85 841 24.83 15.1 59.1 27 -3.7 25.3
08:50 1011 29.85 841 24.83 15.7 60.2 26 -3.6 25.5
08:55 1011 29.85 841 24.83 16.1 61 26 -3.2 26.2
09:00 1011 29.85 840 24.81 16.5 61.7 25 -3.4 25.9
09:05 1011 29.85 840 24.81 17.4 63.3 25 -2.5 27.6
09:10 1011 29.85 840 24.81 17.5 63.4 24 -3 26.5
09:15 1011 29.85 840 24.81 18 64.3 22 -3.8 25.2
09:20 1011 29.85 840 24.81 18.7 65.6 21 -4.2 24.5
09:25 1011 29.85 840 24.81 18.7 65.6 22 -3.4 25.8
09:30 1011 29.85 840 24.81 18.8 65.9 21 -4 24.9
09:35 1011 29.85 840 24.81 18.9 66 21 -3.8 25.2
09:40 1011 29.85 840 24.81 18.9 65.9 21 -3.5 25.7
09:45 1011 29.85 840 24.81 18.6 65.5 22 -3.7 25.4
09:50 1011 29.85 840 24.81 18.9 66 26 -1.1 30
09:55 1011 29.85 840 24.81 18.7 65.7 23 -2.8 27
10:00 1011 29.85 840 24.81 18.9 66.1 28 0.4 32.7
10:05 1011 29.85 840 24.81 18.5 65.3 27 -0.8 30.6
10:10 1011 29.85 840 24.81 19 66.1 29 0.7 33.3
10:15 1011 29.85 840 24.81 18.3 64.9 31 1.1 33.9
10:20 1011 29.85 840 24.81 17.4 63.3 34 1.6 34.9
10:25 1011 29.85 840 24.81 17.5 63.5 33 1.3 34.3
10:30 1011 29.85 840 24.81 17.2 62.9 35 1.8 35.3
10:35 1011 29.85 840 24.81 17.2 62.9 32 0.7 33.2
10:40 1011 29.85 840 24.81 18 64.3 33 1.5 34.7
10:45 1011 29.85 840 24.81 17.8 64.1 33 1.6 34.8
10:50 1011 29.85 840 24.81 17.1 62.8 34 1.1 34
10:55 1011 29.85 840 24.81 17.4 63.2 33 0.9 33.7
11:00 1011 29.85 840 24.81 17 62.5 33 0.8 33.4
11:05 1011 29.85 840 24.81 16.9 62.5 32 0.5 32.8
11:10 1011 29.85 840 24.81 17.1 62.8 32 0.6 33
11:15 1010 29.83 840 24.81 17.3 63.1 32 0.5 32.9
11:20 1010 29.83 840 24.81 17 62.7 33 0.6 33.1
11:25 1010 29.83 839 24.78 17.4 63.4 31 0.3 32.5
11:30 1010 29.83 839 24.78 18.2 64.7 30 0.2 32.4
11:35 1010 29.83 839 24.78 19.5 67.1 27 0 32
11:40 1010 29.83 839 24.78 20.2 68.4 27 0.6 33
11:45 1010 29.83 839 24.78 20.8 69.4 26 0.8 33.4
11:50 1010 29.83 839 24.78 21.4 70.4 24 0.4 32.6
11:55 1010 29.83 839 24.78 21.7 71.1 24 0.7 33.2
12:00 1010 29.83 839 24.78 21.9 71.3 24 0.3 32.5
12:05 1010 29.83 839 24.78 23.1 73.6 22 0.6 33
12:10 1010 29.83 839 24.78 23 73.4 23 1.1 34
12:15 1010 29.83 839 24.78 23.1 73.6 22 0.2 32.3
12:20 1009 29.8 839 24.78 24.4 76 20 0.2 32.3
12:25 1009 29.8 839 24.78 24.6 76.3 20 0.6 33.1
12:30 1009 29.8 839 24.78 23.7 74.6 22 1 33.9
12:35 1009 29.8 838 24.75 23.2 73.7 21 0.1 32.2
12:40 1009 29.8 838 24.75 24.3 75.8 20 0.3 32.5
12:45 1009 29.8 838 24.75 25.3 77.5 17 -1.3 29.7
12:50 1009 29.8 838 24.75 25.6 78 16 -1.6 29
12:55 1009 29.8 838 24.75 25.7 78.3 15 -2.8 26.9
13:00 1009 29.8 838 24.75 25.8 78.4 14 -3.8 25.1
13:05 1009 29.8 838 24.75 24.8 76.6 18 -1 30.2
13:10 1009 29.8 838 24.75 25.6 78.1 15 -2.9 26.8
13:15 1009 29.8 838 24.75 25.6 78 14 -3.6 25.5
13:20 1008 29.77 838 24.75 25.4 77.8 15 -2.4 27.6
13:25 1008 29.77 838 24.75 25.4 77.6 14 -3.9 24.9
13:30 1008 29.77 838 24.75 25.6 78.1 13 -4.4 24.1
13:35 1009 29.8 838 24.75 26.3 79.4 12 -5.5 22.2
13:40 1008 29.77 838 24.75 25.6 78 17 -0.8 30.5
13:45 1009 29.8 838 24.75 26 78.8 17 -0.4 31.4
13:50 1008 29.77 838 24.75 25.7 78.3 12 -5.4 22.3
13:55 1008 29.77 838 24.75 25.2 77.4 12 -5.8 21.6
14:00 1008 29.77 838 24.75 24.8 76.6 11 -7 19.3
14:05 1008 29.77 838 24.75 24.8 76.7 12 -6.5 20.3
14:10 1008 29.77 838 24.75 24.6 76.3 11 -7.8 18
14:15 1008 29.77 838 24.75 24.7 76.4 11 -7.2 19.1
14:20 1008 29.77 837 24.72 24.9 76.7 12 -6.4 20.5
14:25 1008 29.77 837 24.72 24.7 76.4 11 -7.6 18.4
14:30 1008 29.77 837 24.72 24.6 76.3 12 -6.8 19.8
14:35 1008 29.77 837 24.72 24.7 76.4 11 -7.3 18.9
14:40 1008 29.77 837 24.72 25.2 77.4 11 -6.6 20.2
14:45 1008 29.77 837 24.72 25 77.1 12 -6.6 20.2
14:50 1008 29.77 837 24.72 25 77 11 -7.5 18.5
14:55 1008 29.77 837 24.72 24.7 76.5 12 -6.6 20.2
15:00 1008 29.77 837 24.72 24.8 76.6 11 -7.3 18.9
15:05 1008 29.77 837 24.72 24.7 76.4 11 -7.1 19.2
15:10 1008 29.77 837 24.72 24.8 76.7 12 -6.7 19.9
15:15 1008 29.77 837 24.72 24.7 76.5 11 -7.4 18.7
15:20 1008 29.77 837 24.72 24.6 76.3 11 -7.6 18.4
15:25 1008 29.77 837 24.72 24.7 76.5 11 -7.2 19.1
15:30 1008 29.77 837 24.72 25.7 78.3 11 -6.2 20.9
15:35 1008 29.77 837 24.72 25.3 77.5 11 -7.4 18.7
15:40 1008 29.77 837 24.72 25.7 78.2 11 -7 19.4
15:45 1008 29.77 837 24.72 25.6 78.1 10 -8.4 16.8
15:50 1007 29.74 837 24.72 25.6 78 11 -6.8 19.8
15:55 1007 29.74 837 24.72 25.2 77.3 11 -7 19.5
16:00 1007 29.74 837 24.72 25.2 77.3 12 -6.5 20.2
16:05 1007 29.74 837 24.72 25.1 77.2 11 -7 19.4
16:10 1007 29.74 837 24.72 25.1 77.1 10 -8.4 16.9
16:15 1007 29.74 837 24.72 24.8 76.7 11 -7.8 17.9
16:20 1007 29.74 836 24.69 24.8 76.6 11 -7.4 18.7
16:25 1007 29.74 836 24.69 25 77 10 -8.1 17.4
16:30 1007 29.74 836 24.69 24.6 76.4 11 -7.7 18.2
16:35 1007 29.74 836 24.69 24.7 76.4 11 -7.9 17.8
16:40 1007 29.74 836 24.69 24.8 76.7 11 -7.7 18.1
16:45 1007 29.74 836 24.69 25.1 77.1 11 -7.8 18
16:50 1007 29.74 836 24.69 24.7 76.4 12 -6.9 19.6
16:55 1007 29.74 836 24.69 24.7 76.4 11 -7.7 18.1
17:00 1007 29.74 836 24.69 24.5 76.2 11 -7.5 18.4
17:05 1007 29.74 836 24.69 24.6 76.2 11 -7.6 18.3
17:10 1007 29.74 836 24.69 24.5 76.1 11 -7.4 18.7
17:15 1007 29.74 836 24.69 24.5 76.1 11 -7.6 18.3
17:20 1007 29.74 836 24.69 24.3 75.7 12 -6.8 19.8
17:25 1007 29.74 836 24.69 24.1 75.4 12 -7.2 19
17:30 1007 29.74 836 24.69 23.9 75.1 12 -7.3 18.9
17:35 1007 29.74 836 24.69 24 75.1 11 -8 17.6
17:40 1007 29.74 836 24.69 23.7 74.7 11 -8.2 17.2
17:45 1007 29.74 836 24.69 23.7 74.6 11 -7.8 17.9
17:50 1007 29.74 836 24.69 24 75.2 11 -7.7 18.2
17:55 1007 29.74 836 24.69 23.7 74.7 12 -7.3 18.9
18:00 1007 29.74 836 24.69 23.6 74.4 11 -8.1 17.4
18:05 1007 29.74 836 24.69 23.5 74.3 12 -7.2 19
18:10 1007 29.74 836 24.69 23.5 74.2 12 -7.8 18
18:15 1007 29.74 836 24.69 23.7 74.6 12 -7.6 18.3
18:20 1007 29.74 836 24.69 23.5 74.3 12 -7.4 18.7
18:25 1007 29.74 836 24.69 23.4 74.1 12 -7.1 19.3
18:30 1007 29.74 836 24.69 23.3 73.9 13 -6.8 19.7
18:35 1007 29.74 836 24.69 23.2 73.7 12 -7.1 19.2
18:40 1007 29.74 836 24.69 23.1 73.6 12 -7.2 19
18:45 1007 29.74 836 24.69 22.9 73.1 12 -7.4 18.7
18:50 1007 29.74 836 24.69 22.7 72.8 13 -7.3 18.8
18:55 1007 29.74 836 24.69 22.6 72.6 13 -6.7 19.9
19:00 1007 29.74 836 24.69 22.4 72.3 15 -5.2 22.6
19:05 1007 29.74 836 24.69 22.2 71.9 15 -5.7 21.7
19:10 1007 29.74 836 24.69 21.9 71.5 15 -5.8 21.5
19:15 1007 29.74 836 24.69 21.7 71 16 -5.2 22.7
19:20 1007 29.74 836 24.69 21.4 70.5 17 -4.7 23.5
19:25 1007 29.74 836 24.69 21.2 70.1 16 -5.1 22.8
19:30 1007 29.74 836 24.69 21 69.8 18 -4.2 24.5
19:35 1007 29.74 836 24.69 20.7 69.2 18 -4 24.8
19:40 1007 29.74 836 24.69 20.5 68.8 18 -4.5 23.9
19:45 1007 29.74 836 24.69 20.4 68.7 19 -4.1 24.6
19:50 1007 29.74 836 24.69 20.2 68.4 19 -4 24.9
19:55 1007 29.74 836 24.69 20 68.1 19 -4 24.8
20:00 1007 29.74 836 24.69 19.9 67.9 20 -3.8 25.1
20:05 1007 29.74 836 24.69 19.8 67.7 20 -3.9 25.1
20:10 1007 29.74 836 24.69 19.6 67.3 20 -3.5 25.7
20:15 1007 29.74 836 24.69 19.3 66.8 21 -3.7 25.4
20:20 1007 29.74 836 24.69 19.2 66.5 21 -3.6 25.6
20:25 1007 29.74 836 24.69 19 66.1 22 -3.3 26.1
20:30 1007 29.74 836 24.69 18.8 65.9 22 -3.4 25.9
20:35 1007 29.74 836 24.69 18.7 65.7 22 -3.6 25.5
20:40 1007 29.74 836 24.69 18.7 65.7 21 -3.7 25.4
20:45 1007 29.74 836 24.69 18.7 65.6 21 -3.7 25.4
20:50 1007 29.74 836 24.69 18.6 65.5 22 -3.4 26
20:55 1007 29.74 836 24.69 18.1 64.6 23 -2.9 26.7
21:00 1007 29.74 836 24.69 17.7 63.9 24 -3.2 26.3
21:05 1007 29.74 836 24.69 17.8 64.1 22 -4 24.9
21:10 1007 29.74 837 24.72 18 64.5 22 -3.8 25.1
21:15 1007 29.74 837 24.72 18.1 64.6 22 -3.6 25.5
21:20 1007 29.74 837 24.72 18.2 64.7 22 -3.7 25.3
21:25 1007 29.74 837 24.72 18.1 64.5 24 -2.7 27.1
21:30 1007 29.74 837 24.72 17.4 63.3 25 -2.5 27.4
21:35 1007 29.74 837 24.72 16.9 62.4 27 -2.3 27.8
21:40 1007 29.74 837 24.72 16.3 61.4 29 -1.8 28.8
21:45 1007 29.74 837 24.72 15.7 60.2 30 -1.6 29.2
21:50 1008 29.77 837 24.72 15.4 59.6 28 -2.8 27
21:55 1008 29.77 837 24.72 15.7 60.3 28 -2.6 27.2
22:00 1007 29.74 837 24.72 15.7 60.3 28 -2.4 27.6
22:05 1008 29.77 837 24.72 15.5 60 28 -3 26.7
22:10 1008 29.77 837 24.72 16.2 61.2 28 -2.2 28
22:15 1008 29.77 837 24.72 15.8 60.4 28 -2.4 27.7
22:20 1008 29.77 837 24.72 15.8 60.5 29 -2.2 28.1
22:25 1008 29.77 837 24.72 15.4 59.7 30 -1.9 28.6
22:30 1008 29.77 837 24.72 15.1 59.2 31 -1.9 28.6
22:35 1008 29.77 837 24.72 14.9 58.9 32 -1.6 29.1
22:40 1008 29.77 837 24.72 14.5 58.1 33 -1.5 29.3
22:45 1008 29.77 837 24.72 14.7 58.5 29 -3 26.6
22:50 1008 29.77 837 24.72 15.6 60.1 31 -1.5 29.2
22:55 1008 29.77 837 24.72 15.2 59.3 31 -1.5 29.2
23:00 1008 29.77 837 24.72 15 59 32 -1.7 29
23:05 1008 29.77 837 24.72 14.9 58.9 32 -1.7 29
23:10 1008 29.77 838 24.75 15 59 31 -1.8 28.7
23:15 1009 29.8 838 24.75 15.3 59.5 31 -1.5 29.2
23:20 1009 29.8 838 24.75 15.3 59.5 32 -1.4 29.5
23:25 1009 29.8 838 24.75 15.2 59.3 32 -1.1 30
23:30 1009 29.8 838 24.75 14.8 58.7 33 -1.3 29.6
23:35 1009 29.8 838 24.75 15.6 60.2 28 -2.6 27.4
23:40 1009 29.8 838 24.75 16.3 61.3 27 -2.9 26.8
23:45 1009 29.8 838 24.75 16 60.9 29 -1.7 28.9
23:50 1008 29.77 838 24.75 15.5 59.9 30 -1.8 28.8
23:55 1008 29.77 837 24.72 15.5 59.9 31 -1.6 29.2
24:00 1008 29.77 838 24.75 15.4 59.8 32 -1.2 29.8